TAF and METAR

No METAR available for Sola Airport

TAF for Sola Airport

TAF NVSC 251000Z 2512/2612 12010KT 9999 SCT020 BKN040 OVC100 INTER 2512/2518 7000 -TSRA BKN018 FEW025CB
Report created 25. sep 12:00

between 25. sep 14:00 - 26. sep 14:00

wind 10 knots from ESE (120°) visibility > 10km scattered clouds (~50% cover) at 2000 feet broken clouds (~75% cover) at 4000 feet overcast at 10000 feet